sensor_id;sensor_type;location;lat;lon;timestamp;P1;durP1;ratioP1;P2;durP2;ratioP2
21848;SDS011;11089;49.852;19.700;2024-02-15T00:01:11;19.10;;;8.65;;
21848;SDS011;11089;49.852;19.700;2024-02-15T00:04:12;21.45;;;10.07;;
21848;SDS011;11089;49.852;19.700;2024-02-15T00:07:13;20.55;;;9.00;;
21848;SDS011;11089;49.852;19.700;2024-02-15T00:10:14;21.90;;;8.38;;
21848;SDS011;11089;49.852;19.700;2024-02-15T00:13:23;18.58;;;8.32;;
21848;SDS011;11089;49.852;19.700;2024-02-15T00:16:25;17.08;;;8.68;;
21848;SDS011;11089;49.852;19.700;2024-02-15T00:19:27;17.02;;;8.20;;
21848;SDS011;11089;49.852;19.700;2024-02-15T00:22:30;23.15;;;8.68;;
21848;SDS011;11089;49.852;19.700;2024-02-15T00:25:34;20.30;;;9.40;;
21848;SDS011;11089;49.852;19.700;2024-02-15T00:28:36;15.93;;;7.95;;
21848;SDS011;11089;49.852;19.700;2024-02-15T00:31:36;15.25;;;7.53;;
21848;SDS011;11089;49.852;19.700;2024-02-15T00:34:38;18.08;;;8.18;;
21848;SDS011;11089;49.852;19.700;2024-02-15T00:37:42;17.52;;;8.32;;
21848;SDS011;11089;49.852;19.700;2024-02-15T00:40:43;17.70;;;7.60;;
21848;SDS011;11089;49.852;19.700;2024-02-15T00:43:44;17.65;;;7.72;;
21848;SDS011;11089;49.852;19.700;2024-02-15T00:46:45;16.08;;;7.18;;
21848;SDS011;11089;49.852;19.700;2024-02-15T00:49:47;13.90;;;6.70;;
21848;SDS011;11089;49.852;19.700;2024-02-15T00:52:50;16.02;;;7.68;;
21848;SDS011;11089;49.852;19.700;2024-02-15T00:55:51;17.60;;;7.53;;
21848;SDS011;11089;49.852;19.700;2024-02-15T00:58:52;14.10;;;6.32;;
21848;SDS011;11089;49.852;19.700;2024-02-15T01:01:53;13.68;;;6.70;;
21848;SDS011;11089;49.852;19.700;2024-02-15T01:04:54;14.68;;;6.57;;
21848;SDS011;11089;49.852;19.700;2024-02-15T01:07:57;13.80;;;6.65;;
21848;SDS011;11089;49.852;19.700;2024-02-15T01:10:58;20.63;;;8.35;;
21848;SDS011;11089;49.852;19.700;2024-02-15T01:13:59;14.25;;;6.65;;
21848;SDS011;11089;49.852;19.700;2024-02-15T01:17:00;16.73;;;5.95;;
21848;SDS011;11089;49.852;19.700;2024-02-15T01:20:00;13.35;;;6.38;;
21848;SDS011;11089;49.852;19.700;2024-02-15T01:23:01;13.50;;;6.32;;
21848;SDS011;11089;49.852;19.700;2024-02-15T01:26:02;11.43;;;6.05;;
21848;SDS011;11089;49.852;19.700;2024-02-15T01:29:03;15.18;;;6.57;;
21848;SDS011;11089;49.852;19.700;2024-02-15T01:32:04;13.07;;;6.10;;
21848;SDS011;11089;49.852;19.700;2024-02-15T01:35:05;16.48;;;7.40;;
21848;SDS011;11089;49.852;19.700;2024-02-15T01:38:07;19.25;;;7.38;;
21848;SDS011;11089;49.852;19.700;2024-02-15T01:41:08;16.52;;;6.65;;
21848;SDS011;11089;49.852;19.700;2024-02-15T01:44:09;11.70;;;6.05;;
21848;SDS011;11089;49.852;19.700;2024-02-15T01:47:11;14.20;;;6.63;;
21848;SDS011;11089;49.852;19.700;2024-02-15T01:50:13;14.25;;;6.40;;
21848;SDS011;11089;49.852;19.700;2024-02-15T01:53:14;16.83;;;7.32;;
21848;SDS011;11089;49.852;19.700;2024-02-15T01:56:15;14.50;;;7.40;;
21848;SDS011;11089;49.852;19.700;2024-02-15T01:59:17;14.27;;;6.47;;
21848;SDS011;11089;49.852;19.700;2024-02-15T02:02:20;17.52;;;7.32;;
21848;SDS011;11089;49.852;19.700;2024-02-15T02:05:24;14.98;;;6.78;;
21848;SDS011;11089;49.852;19.700;2024-02-15T02:08:25;13.80;;;6.22;;
21848;SDS011;11089;49.852;19.700;2024-02-15T02:11:25;17.75;;;7.38;;
21848;SDS011;11089;49.852;19.700;2024-02-15T02:14:26;12.85;;;6.03;;
21848;SDS011;11089;49.852;19.700;2024-02-15T02:17:27;11.88;;;6.60;;
21848;SDS011;11089;49.852;19.700;2024-02-15T02:20:28;17.23;;;7.35;;
21848;SDS011;11089;49.852;19.700;2024-02-15T02:23:29;16.75;;;7.30;;
21848;SDS011;11089;49.852;19.700;2024-02-15T02:26:31;11.85;;;6.80;;
21848;SDS011;11089;49.852;19.700;2024-02-15T02:29:32;15.88;;;7.43;;
21848;SDS011;11089;49.852;19.700;2024-02-15T02:32:33;15.68;;;7.78;;
21848;SDS011;11089;49.852;19.700;2024-02-15T02:35:34;11.60;;;7.07;;
21848;SDS011;11089;49.852;19.700;2024-02-15T02:38:35;13.77;;;7.50;;
21848;SDS011;11089;49.852;19.700;2024-02-15T02:41:38;15.55;;;7.53;;
21848;SDS011;11089;49.852;19.700;2024-02-15T02:44:38;13.07;;;6.93;;
21848;SDS011;11089;49.852;19.700;2024-02-15T02:47:39;17.85;;;7.85;;
21848;SDS011;11089;49.852;19.700;2024-02-15T02:50:40;17.30;;;7.30;;
21848;SDS011;11089;49.852;19.700;2024-02-15T02:53:41;12.40;;;7.10;;
21848;SDS011;11089;49.852;19.700;2024-02-15T02:56:41;18.08;;;7.80;;
21848;SDS011;11089;49.852;19.700;2024-02-15T02:59:45;16.30;;;7.28;;
21848;SDS011;11089;49.852;19.700;2024-02-15T03:02:46;17.52;;;7.00;;
21848;SDS011;11089;49.852;19.700;2024-02-15T03:05:47;12.35;;;6.63;;
21848;SDS011;11089;49.852;19.700;2024-02-15T03:08:48;14.65;;;6.63;;
21848;SDS011;11089;49.852;19.700;2024-02-15T03:11:50;13.73;;;5.80;;
21848;SDS011;11089;49.852;19.700;2024-02-15T03:14:50;15.05;;;6.97;;
21848;SDS011;11089;49.852;19.700;2024-02-15T03:17:51;14.80;;;6.70;;
21848;SDS011;11089;49.852;19.700;2024-02-15T03:20:52;14.98;;;7.75;;
21848;SDS011;11089;49.852;19.700;2024-02-15T03:23:53;12.90;;;7.38;;
21848;SDS011;11089;49.852;19.700;2024-02-15T03:26:54;14.23;;;6.47;;
21848;SDS011;11089;49.852;19.700;2024-02-15T03:29:55;16.08;;;6.97;;
21848;SDS011;11089;49.852;19.700;2024-02-15T03:32:58;15.55;;;7.00;;
21848;SDS011;11089;49.852;19.700;2024-02-15T03:35:59;15.38;;;6.47;;
21848;SDS011;11089;49.852;19.700;2024-02-15T03:39:00;12.63;;;6.28;;
21848;SDS011;11089;49.852;19.700;2024-02-15T03:42:01;13.63;;;6.07;;
21848;SDS011;11089;49.852;19.700;2024-02-15T03:45:03;11.00;;;5.53;;
21848;SDS011;11089;49.852;19.700;2024-02-15T03:48:06;12.63;;;6.32;;
21848;SDS011;11089;49.852;19.700;2024-02-15T03:51:07;11.90;;;5.13;;
21848;SDS011;11089;49.852;19.700;2024-02-15T03:54:09;11.30;;;5.57;;
21848;SDS011;11089;49.852;19.700;2024-02-15T03:57:11;14.10;;;6.05;;
21848;SDS011;11089;49.852;19.700;2024-02-15T04:00:12;10.52;;;5.18;;
21848;SDS011;11089;49.852;19.700;2024-02-15T04:03:20;10.05;;;5.50;;
21848;SDS011;11089;49.852;19.700;2024-02-15T04:06:22;13.02;;;6.38;;
21848;SDS011;11089;49.852;19.700;2024-02-15T04:09:24;13.20;;;6.45;;
21848;SDS011;11089;49.852;19.700;2024-02-15T04:12:25;10.13;;;5.82;;
21848;SDS011;11089;49.852;19.700;2024-02-15T04:15:27;9.02;;;5.43;;
21848;SDS011;11089;49.852;19.700;2024-02-15T04:18:28;13.15;;;5.53;;
21848;SDS011;11089;49.852;19.700;2024-02-15T04:21:32;12.65;;;6.93;;
21848;SDS011;11089;49.852;19.700;2024-02-15T04:24:33;11.40;;;5.95;;
21848;SDS011;11089;49.852;19.700;2024-02-15T04:27:35;10.80;;;4.75;;
21848;SDS011;11089;49.852;19.700;2024-02-15T04:30:36;11.10;;;5.25;;
21848;SDS011;11089;49.852;19.700;2024-02-15T04:33:38;8.13;;;4.78;;
21848;SDS011;11089;49.852;19.700;2024-02-15T04:36:40;9.30;;;5.32;;
21848;SDS011;11089;49.852;19.700;2024-02-15T04:39:41;12.27;;;5.45;;
21848;SDS011;11089;49.852;19.700;2024-02-15T04:42:42;11.68;;;5.20;;
21848;SDS011;11089;49.852;19.700;2024-02-15T04:45:45;11.35;;;5.30;;
21848;SDS011;11089;49.852;19.700;2024-02-15T04:48:46;9.73;;;5.45;;
21848;SDS011;11089;49.852;19.700;2024-02-15T04:51:49;10.35;;;5.22;;
21848;SDS011;11089;49.852;19.700;2024-02-15T04:54:50;10.98;;;5.78;;
21848;SDS011;11089;49.852;19.700;2024-02-15T04:57:51;10.27;;;4.97;;
21848;SDS011;11089;49.852;19.700;2024-02-15T05:00:55;8.10;;;4.25;;
21848;SDS011;11089;49.852;19.700;2024-02-15T05:03:59;8.38;;;5.28;;
21848;SDS011;11089;49.852;19.700;2024-02-15T05:07:00;12.32;;;5.13;;
21848;SDS011;11089;49.852;19.700;2024-02-15T05:10:01;11.23;;;4.97;;
21848;SDS011;11089;49.852;19.700;2024-02-15T05:13:06;10.80;;;5.60;;
21848;SDS011;11089;49.852;19.700;2024-02-15T05:16:08;10.25;;;5.38;;
21848;SDS011;11089;49.852;19.700;2024-02-15T05:19:09;10.65;;;5.25;;
21848;SDS011;11089;49.852;19.700;2024-02-15T05:22:13;10.23;;;5.10;;
21848;SDS011;11089;49.852;19.700;2024-02-15T05:25:15;9.50;;;5.07;;
21848;SDS011;11089;49.852;19.700;2024-02-15T05:28:16;9.50;;;5.53;;
21848;SDS011;11089;49.852;19.700;2024-02-15T05:31:19;10.13;;;4.03;;
21848;SDS011;11089;49.852;19.700;2024-02-15T05:34:21;11.52;;;5.13;;
21848;SDS011;11089;49.852;19.700;2024-02-15T05:37:21;10.73;;;5.38;;
21848;SDS011;11089;49.852;19.700;2024-02-15T05:40:23;9.85;;;5.10;;
21848;SDS011;11089;49.852;19.700;2024-02-15T05:43:24;9.20;;;5.03;;
21848;SDS011;11089;49.852;19.700;2024-02-15T05:46:25;12.02;;;5.50;;
21848;SDS011;11089;49.852;19.700;2024-02-15T05:49:28;12.55;;;6.32;;
21848;SDS011;11089;49.852;19.700;2024-02-15T05:52:29;14.65;;;5.97;;
21848;SDS011;11089;49.852;19.700;2024-02-15T05:55:29;10.07;;;5.38;;
21848;SDS011;11089;49.852;19.700;2024-02-15T05:58:34;8.05;;;5.00;;
21848;SDS011;11089;49.852;19.700;2024-02-15T06:01:36;9.75;;;4.93;;
21848;SDS011;11089;49.852;19.700;2024-02-15T06:04:40;8.68;;;4.65;;
21848;SDS011;11089;49.852;19.700;2024-02-15T06:07:41;10.05;;;5.03;;
21848;SDS011;11089;49.852;19.700;2024-02-15T06:10:42;10.77;;;4.47;;
21848;SDS011;11089;49.852;19.700;2024-02-15T06:13:43;10.85;;;5.47;;
21848;SDS011;11089;49.852;19.700;2024-02-15T06:16:46;13.35;;;5.13;;
21848;SDS011;11089;49.852;19.700;2024-02-15T06:19:47;13.10;;;5.18;;
21848;SDS011;11089;49.852;19.700;2024-02-15T06:22:47;8.50;;;4.63;;
21848;SDS011;11089;49.852;19.700;2024-02-15T06:25:50;8.00;;;5.03;;
21848;SDS011;11089;49.852;19.700;2024-02-15T06:28:55;10.77;;;4.72;;
21848;SDS011;11089;49.852;19.700;2024-02-15T06:32:22;9.38;;;4.93;;
21848;SDS011;11089;49.852;19.700;2024-02-15T06:35:36;10.50;;;4.95;;
21848;SDS011;11089;49.852;19.700;2024-02-15T06:38:52;10.48;;;4.80;;
21848;SDS011;11089;49.852;19.700;2024-02-15T06:42:07;11.27;;;5.45;;
21848;SDS011;11089;49.852;19.700;2024-02-15T06:45:09;8.40;;;4.63;;
21848;SDS011;11089;49.852;19.700;2024-02-15T06:48:10;8.88;;;5.30;;
21848;SDS011;11089;49.852;19.700;2024-02-15T06:51:14;7.45;;;4.32;;
21848;SDS011;11089;49.852;19.700;2024-02-15T06:54:15;7.28;;;4.60;;
21848;SDS011;11089;49.852;19.700;2024-02-15T06:57:18;9.30;;;4.57;;
21848;SDS011;11089;49.852;19.700;2024-02-15T07:00:19;9.27;;;4.30;;
21848;SDS011;11089;49.852;19.700;2024-02-15T07:03:20;10.32;;;4.90;;
21848;SDS011;11089;49.852;19.700;2024-02-15T07:06:22;8.13;;;4.97;;
21848;SDS011;11089;49.852;19.700;2024-02-15T07:09:23;8.10;;;4.50;;
21848;SDS011;11089;49.852;19.700;2024-02-15T07:12:24;5.93;;;3.75;;
21848;SDS011;11089;49.852;19.700;2024-02-15T07:15:25;7.85;;;4.55;;
21848;SDS011;11089;49.852;19.700;2024-02-15T07:18:27;8.40;;;4.07;;
21848;SDS011;11089;49.852;19.700;2024-02-15T07:21:28;9.55;;;4.93;;
21848;SDS011;11089;49.852;19.700;2024-02-15T07:24:29;7.18;;;4.60;;
21848;SDS011;11089;49.852;19.700;2024-02-15T07:27:30;7.30;;;4.20;;
21848;SDS011;11089;49.852;19.700;2024-02-15T07:30:33;7.40;;;4.35;;
21848;SDS011;11089;49.852;19.700;2024-02-15T07:33:33;8.10;;;4.05;;
21848;SDS011;11089;49.852;19.700;2024-02-15T07:36:35;8.05;;;4.45;;
21848;SDS011;11089;49.852;19.700;2024-02-15T07:39:36;10.23;;;4.82;;
21848;SDS011;11089;49.852;19.700;2024-02-15T07:42:37;9.95;;;4.88;;
21848;SDS011;11089;49.852;19.700;2024-02-15T07:45:38;8.10;;;4.38;;
21848;SDS011;11089;49.852;19.700;2024-02-15T07:48:39;8.18;;;4.82;;
21848;SDS011;11089;49.852;19.700;2024-02-15T07:51:45;9.25;;;5.13;;
21848;SDS011;11089;49.852;19.700;2024-02-15T07:54:52;7.78;;;4.20;;
21848;SDS011;11089;49.852;19.700;2024-02-15T07:57:53;9.80;;;4.53;;
21848;SDS011;11089;49.852;19.700;2024-02-15T08:00:56;8.85;;;4.68;;
21848;SDS011;11089;49.852;19.700;2024-02-15T08:03:57;17.38;;;8.88;;
21848;SDS011;11089;49.852;19.700;2024-02-15T08:06:57;13.45;;;6.45;;
21848;SDS011;11089;49.852;19.700;2024-02-15T08:09:58;8.40;;;5.40;;
21848;SDS011;11089;49.852;19.700;2024-02-15T08:13:00;11.25;;;6.18;;
21848;SDS011;11089;49.852;19.700;2024-02-15T08:16:00;8.40;;;4.82;;
21848;SDS011;11089;49.852;19.700;2024-02-15T08:19:05;12.15;;;6.30;;
21848;SDS011;11089;49.852;19.700;2024-02-15T08:22:07;8.45;;;5.13;;
21848;SDS011;11089;49.852;19.700;2024-02-15T08:25:11;7.97;;;4.90;;
21848;SDS011;11089;49.852;19.700;2024-02-15T08:28:12;8.02;;;4.60;;
21848;SDS011;11089;49.852;19.700;2024-02-15T08:31:13;10.05;;;5.28;;
21848;SDS011;11089;49.852;19.700;2024-02-15T08:34:15;10.35;;;4.65;;
21848;SDS011;11089;49.852;19.700;2024-02-15T08:37:18;10.68;;;5.10;;
21848;SDS011;11089;49.852;19.700;2024-02-15T08:40:19;8.70;;;4.57;;
21848;SDS011;11089;49.852;19.700;2024-02-15T08:43:25;7.00;;;4.00;;
21848;SDS011;11089;49.852;19.700;2024-02-15T08:46:25;9.10;;;4.03;;
21848;SDS011;11089;49.852;19.700;2024-02-15T08:49:27;7.68;;;3.75;;
21848;SDS011;11089;49.852;19.700;2024-02-15T08:52:30;8.23;;;4.25;;
21848;SDS011;11089;49.852;19.700;2024-02-15T08:55:32;9.35;;;5.03;;
21848;SDS011;11089;49.852;19.700;2024-02-15T08:58:35;12.88;;;5.38;;
21848;SDS011;11089;49.852;19.700;2024-02-15T09:01:39;7.95;;;4.55;;
21848;SDS011;11089;49.852;19.700;2024-02-15T09:04:40;5.68;;;4.03;;
21848;SDS011;11089;49.852;19.700;2024-02-15T09:07:41;7.05;;;3.70;;
21848;SDS011;11089;49.852;19.700;2024-02-15T09:10:43;5.97;;;3.60;;
21848;SDS011;11089;49.852;19.700;2024-02-15T09:13:43;7.03;;;3.13;;
21848;SDS011;11089;49.852;19.700;2024-02-15T09:16:44;6.57;;;3.92;;
21848;SDS011;11089;49.852;19.700;2024-02-15T09:19:48;6.03;;;3.70;;
21848;SDS011;11089;49.852;19.700;2024-02-15T09:22:52;5.40;;;3.45;;
21848;SDS011;11089;49.852;19.700;2024-02-15T09:25:54;4.70;;;3.13;;
21848;SDS011;11089;49.852;19.700;2024-02-15T09:28:55;8.07;;;4.18;;
21848;SDS011;11089;49.852;19.700;2024-02-15T09:31:56;6.68;;;3.63;;
21848;SDS011;11089;49.852;19.700;2024-02-15T09:34:57;8.35;;;4.05;;
21848;SDS011;11089;49.852;19.700;2024-02-15T09:37:58;5.20;;;3.47;;
21848;SDS011;11089;49.852;19.700;2024-02-15T09:40:59;5.85;;;3.28;;
21848;SDS011;11089;49.852;19.700;2024-02-15T09:44:00;8.38;;;4.38;;
21848;SDS011;11089;49.852;19.700;2024-02-15T09:47:02;6.40;;;3.70;;
21848;SDS011;11089;49.852;19.700;2024-02-15T09:50:09;7.38;;;3.88;;
21848;SDS011;11089;49.852;19.700;2024-02-15T09:53:11;5.43;;;3.72;;
21848;SDS011;11089;49.852;19.700;2024-02-15T09:56:15;6.78;;;3.03;;
21848;SDS011;11089;49.852;19.700;2024-02-15T09:59:16;7.00;;;3.17;;
21848;SDS011;11089;49.852;19.700;2024-02-15T10:02:18;7.05;;;3.47;;
21848;SDS011;11089;49.852;19.700;2024-02-15T10:05:19;8.98;;;4.40;;
21848;SDS011;11089;49.852;19.700;2024-02-15T10:08:21;7.32;;;3.75;;
21848;SDS011;11089;49.852;19.700;2024-02-15T10:11:23;7.05;;;3.70;;
21848;SDS011;11089;49.852;19.700;2024-02-15T10:14:24;6.47;;;3.42;;
21848;SDS011;11089;49.852;19.700;2024-02-15T10:17:26;4.20;;;2.83;;
21848;SDS011;11089;49.852;19.700;2024-02-15T10:20:27;6.82;;;3.17;;
21848;SDS011;11089;49.852;19.700;2024-02-15T10:23:28;4.95;;;3.05;;
21848;SDS011;11089;49.852;19.700;2024-02-15T10:26:28;6.43;;;2.97;;
21848;SDS011;11089;49.852;19.700;2024-02-15T10:29:29;6.68;;;3.25;;
21848;SDS011;11089;49.852;19.700;2024-02-15T10:32:34;6.10;;;3.75;;
21848;SDS011;11089;49.852;19.700;2024-02-15T10:35:35;35.60;;;15.27;;
21848;SDS011;11089;49.852;19.700;2024-02-15T10:38:37;12.82;;;5.20;;
21848;SDS011;11089;49.852;19.700;2024-02-15T10:41:38;7.80;;;4.10;;
21848;SDS011;11089;49.852;19.700;2024-02-15T10:44:40;4.90;;;3.20;;
21848;SDS011;11089;49.852;19.700;2024-02-15T10:47:46;4.95;;;3.42;;
21848;SDS011;11089;49.852;19.700;2024-02-15T10:50:51;7.13;;;3.90;;
21848;SDS011;11089;49.852;19.700;2024-02-15T10:53:57;7.88;;;4.05;;
21848;SDS011;11089;49.852;19.700;2024-02-15T10:57:04;8.18;;;4.20;;
21848;SDS011;11089;49.852;19.700;2024-02-15T11:00:06;6.63;;;3.42;;
21848;SDS011;11089;49.852;19.700;2024-02-15T11:03:12;4.40;;;3.00;;
21848;SDS011;11089;49.852;19.700;2024-02-15T11:06:18;7.63;;;3.45;;
21848;SDS011;11089;49.852;19.700;2024-02-15T11:09:21;5.18;;;2.85;;
21848;SDS011;11089;49.852;19.700;2024-02-15T11:12:25;3.38;;;2.30;;
21848;SDS011;11089;49.852;19.700;2024-02-15T11:18:45;5.22;;;3.17;;
21848;SDS011;11089;49.852;19.700;2024-02-15T11:21:55;5.85;;;3.15;;
21848;SDS011;11089;49.852;19.700;2024-02-15T11:24:57;4.63;;;3.13;;
21848;SDS011;11089;49.852;19.700;2024-02-15T11:27:58;7.35;;;4.85;;
21848;SDS011;11089;49.852;19.700;2024-02-15T11:34:48;4.22;;;2.97;;
21848;SDS011;11089;49.852;19.700;2024-02-15T11:43:54;6.25;;;3.35;;
21848;SDS011;11089;49.852;19.700;2024-02-15T11:46:56;4.60;;;3.33;;
21848;SDS011;11089;49.852;19.700;2024-02-15T11:50:01;5.22;;;2.97;;
21848;SDS011;11089;49.852;19.700;2024-02-15T11:53:06;5.15;;;2.83;;
21848;SDS011;11089;49.852;19.700;2024-02-15T11:56:11;5.35;;;3.13;;
21848;SDS011;11089;49.852;19.700;2024-02-15T11:59:16;3.88;;;3.20;;
21848;SDS011;11089;49.852;19.700;2024-02-15T12:02:31;4.72;;;2.95;;
21848;SDS011;11089;49.852;19.700;2024-02-15T12:05:45;8.18;;;4.30;;
21848;SDS011;11089;49.852;19.700;2024-02-15T12:09:01;4.47;;;2.58;;
21848;SDS011;11089;49.852;19.700;2024-02-15T12:12:16;6.60;;;3.10;;
21848;SDS011;11089;49.852;19.700;2024-02-15T12:15:30;3.80;;;2.08;;
21848;SDS011;11089;49.852;19.700;2024-02-15T12:18:45;4.68;;;2.70;;
21848;SDS011;11089;49.852;19.700;2024-02-15T12:21:47;2.95;;;2.00;;
21848;SDS011;11089;49.852;19.700;2024-02-15T12:24:59;3.92;;;2.10;;
21848;SDS011;11089;49.852;19.700;2024-02-15T12:28:01;2.40;;;1.90;;
21848;SDS011;11089;49.852;19.700;2024-02-15T12:31:06;3.00;;;1.90;;
21848;SDS011;11089;49.852;19.700;2024-02-15T12:34:10;3.85;;;2.22;;
21848;SDS011;11089;49.852;19.700;2024-02-15T12:37:12;4.45;;;2.13;;
21848;SDS011;11089;49.852;19.700;2024-02-15T12:40:15;5.43;;;3.17;;
21848;SDS011;11089;49.852;19.700;2024-02-15T12:43:17;2.97;;;2.05;;
21848;SDS011;11089;49.852;19.700;2024-02-15T12:46:19;2.45;;;1.83;;
21848;SDS011;11089;49.852;19.700;2024-02-15T12:55:41;1.52;;;1.42;;
21848;SDS011;11089;49.852;19.700;2024-02-15T12:58:42;1.92;;;1.50;;
21848;SDS011;11089;49.852;19.700;2024-02-15T13:01:45;1.88;;;1.40;;
21848;SDS011;11089;49.852;19.700;2024-02-15T13:04:48;4.10;;;1.73;;
21848;SDS011;11089;49.852;19.700;2024-02-15T13:07:49;4.80;;;1.77;;
21848;SDS011;11089;49.852;19.700;2024-02-15T13:10:51;2.65;;;1.90;;
21848;SDS011;11089;49.852;19.700;2024-02-15T13:13:52;3.08;;;1.77;;
21848;SDS011;11089;49.852;19.700;2024-02-15T13:16:55;2.70;;;1.88;;
21848;SDS011;11089;49.852;19.700;2024-02-15T13:19:56;2.60;;;1.50;;
21848;SDS011;11089;49.852;19.700;2024-02-15T13:23:05;2.00;;;1.80;;
21848;SDS011;11089;49.852;19.700;2024-02-15T13:26:15;2.10;;;1.70;;
21848;SDS011;11089;49.852;19.700;2024-02-15T13:29:20;4.70;;;2.30;;
21848;SDS011;11089;49.852;19.700;2024-02-15T13:32:21;4.13;;;2.90;;
21848;SDS011;11089;49.852;19.700;2024-02-15T13:35:22;3.00;;;2.50;;
21848;SDS011;11089;49.852;19.700;2024-02-15T13:38:26;4.18;;;2.40;;
21848;SDS011;11089;49.852;19.700;2024-02-15T13:41:28;4.05;;;2.65;;
21848;SDS011;11089;49.852;19.700;2024-02-15T13:44:29;3.70;;;2.42;;
21848;SDS011;11089;49.852;19.700;2024-02-15T13:47:30;2.85;;;2.13;;
21848;SDS011;11089;49.852;19.700;2024-02-15T13:50:31;3.42;;;2.58;;
21848;SDS011;11089;49.852;19.700;2024-02-15T13:53:32;4.38;;;2.35;;
21848;SDS011;11089;49.852;19.700;2024-02-15T13:56:35;2.78;;;2.10;;
21848;SDS011;11089;49.852;19.700;2024-02-15T13:59:35;4.45;;;2.10;;
21848;SDS011;11089;49.852;19.700;2024-02-15T14:02:36;2.58;;;1.80;;
21848;SDS011;11089;49.852;19.700;2024-02-15T14:05:38;2.67;;;1.77;;
21848;SDS011;11089;49.852;19.700;2024-02-15T14:08:41;2.28;;;1.95;;
21848;SDS011;11089;49.852;19.700;2024-02-15T14:11:42;3.58;;;2.20;;
21848;SDS011;11089;49.852;19.700;2024-02-15T14:14:44;3.80;;;2.15;;
21848;SDS011;11089;49.852;19.700;2024-02-15T14:17:46;6.72;;;3.20;;
21848;SDS011;11089;49.852;19.700;2024-02-15T14:20:47;3.88;;;2.80;;
21848;SDS011;11089;49.852;19.700;2024-02-15T14:23:48;6.47;;;3.47;;
21848;SDS011;11089;49.852;19.700;2024-02-15T14:26:49;8.20;;;3.47;;
21848;SDS011;11089;49.852;19.700;2024-02-15T14:29:50;5.63;;;3.10;;
21848;SDS011;11089;49.852;19.700;2024-02-15T14:33:05;3.70;;;3.00;;
21848;SDS011;11089;49.852;19.700;2024-02-15T14:36:11;4.22;;;2.97;;
21848;SDS011;11089;49.852;19.700;2024-02-15T14:39:12;5.32;;;3.10;;
21848;SDS011;11089;49.852;19.700;2024-02-15T14:42:14;4.40;;;2.47;;
21848;SDS011;11089;49.852;19.700;2024-02-15T14:45:16;4.35;;;2.70;;
21848;SDS011;11089;49.852;19.700;2024-02-15T14:48:17;4.43;;;2.60;;
21848;SDS011;11089;49.852;19.700;2024-02-15T14:51:18;3.20;;;2.40;;
21848;SDS011;11089;49.852;19.700;2024-02-15T14:54:19;6.95;;;2.83;;
21848;SDS011;11089;49.852;19.700;2024-02-15T14:57:20;4.05;;;2.58;;
21848;SDS011;11089;49.852;19.700;2024-02-15T15:00:20;4.75;;;2.72;;
21848;SDS011;11089;49.852;19.700;2024-02-15T15:03:23;4.47;;;2.70;;
21848;SDS011;11089;49.852;19.700;2024-02-15T15:06:24;7.40;;;2.72;;
21848;SDS011;11089;49.852;19.700;2024-02-15T15:09:39;6.07;;;3.67;;
21848;SDS011;11089;49.852;19.700;2024-02-15T15:13:00;4.55;;;3.08;;
21848;SDS011;11089;49.852;19.700;2024-02-15T15:16:03;9.45;;;3.75;;
21848;SDS011;11089;49.852;19.700;2024-02-15T15:19:04;6.25;;;3.25;;
21848;SDS011;11089;49.852;19.700;2024-02-15T15:22:05;5.40;;;3.50;;
21848;SDS011;11089;49.852;19.700;2024-02-15T15:25:07;6.85;;;3.83;;
21848;SDS011;11089;49.852;19.700;2024-02-15T15:28:09;7.85;;;3.72;;
21848;SDS011;11089;49.852;19.700;2024-02-15T15:31:10;5.93;;;3.67;;
21848;SDS011;11089;49.852;19.700;2024-02-15T15:34:11;8.40;;;3.58;;
21848;SDS011;11089;49.852;19.700;2024-02-15T15:37:12;6.70;;;3.67;;
21848;SDS011;11089;49.852;19.700;2024-02-15T15:40:13;7.63;;;4.20;;
21848;SDS011;11089;49.852;19.700;2024-02-15T15:43:15;6.72;;;3.50;;
21848;SDS011;11089;49.852;19.700;2024-02-15T15:46:17;9.60;;;3.97;;
21848;SDS011;11089;49.852;19.700;2024-02-15T15:49:17;7.45;;;4.35;;
21848;SDS011;11089;49.852;19.700;2024-02-15T15:52:19;7.15;;;4.38;;
21848;SDS011;11089;49.852;19.700;2024-02-15T15:55:20;9.15;;;4.22;;
21848;SDS011;11089;49.852;19.700;2024-02-15T15:58:21;8.43;;;4.43;;
21848;SDS011;11089;49.852;19.700;2024-02-15T16:01:24;8.73;;;4.35;;
21848;SDS011;11089;49.852;19.700;2024-02-15T16:04:25;7.82;;;4.57;;
21848;SDS011;11089;49.852;19.700;2024-02-15T16:07:26;9.95;;;4.60;;
21848;SDS011;11089;49.852;19.700;2024-02-15T16:10:27;6.65;;;4.45;;
21848;SDS011;11089;49.852;19.700;2024-02-15T16:13:27;5.72;;;4.07;;
21848;SDS011;11089;49.852;19.700;2024-02-15T16:16:28;8.40;;;4.75;;
21848;SDS011;11089;49.852;19.700;2024-02-15T16:19:29;8.88;;;4.63;;
21848;SDS011;11089;49.852;19.700;2024-02-15T16:22:31;6.88;;;4.10;;
21848;SDS011;11089;49.852;19.700;2024-02-15T16:25:32;9.02;;;5.22;;
21848;SDS011;11089;49.852;19.700;2024-02-15T16:28:34;10.57;;;5.35;;
21848;SDS011;11089;49.852;19.700;2024-02-15T16:31:34;11.52;;;6.03;;
21848;SDS011;11089;49.852;19.700;2024-02-15T16:34:35;10.60;;;5.78;;
21848;SDS011;11089;49.852;19.700;2024-02-15T16:37:37;12.18;;;6.40;;
21848;SDS011;11089;49.852;19.700;2024-02-15T16:40:41;14.27;;;6.20;;
21848;SDS011;11089;49.852;19.700;2024-02-15T16:43:42;12.07;;;6.28;;
21848;SDS011;11089;49.852;19.700;2024-02-15T16:46:43;12.10;;;5.70;;
21848;SDS011;11089;49.852;19.700;2024-02-15T16:49:48;11.20;;;5.50;;
21848;SDS011;11089;49.852;19.700;2024-02-15T16:52:49;9.43;;;5.45;;
21848;SDS011;11089;49.852;19.700;2024-02-15T16:55:51;9.05;;;4.97;;
21848;SDS011;11089;49.852;19.700;2024-02-15T16:58:52;7.57;;;4.03;;
21848;SDS011;11089;49.852;19.700;2024-02-15T17:01:53;6.85;;;4.20;;
21848;SDS011;11089;49.852;19.700;2024-02-15T17:04:54;7.85;;;4.28;;
21848;SDS011;11089;49.852;19.700;2024-02-15T17:07:55;7.57;;;4.03;;
21848;SDS011;11089;49.852;19.700;2024-02-15T17:10:56;7.18;;;4.38;;
21848;SDS011;11089;49.852;19.700;2024-02-15T17:13:57;10.88;;;4.95;;
21848;SDS011;11089;49.852;19.700;2024-02-15T17:17:01;10.27;;;5.30;;
21848;SDS011;11089;49.852;19.700;2024-02-15T17:20:02;11.98;;;5.88;;
21848;SDS011;11089;49.852;19.700;2024-02-15T17:23:03;10.80;;;5.15;;
21848;SDS011;11089;49.852;19.700;2024-02-15T17:26:04;11.45;;;5.25;;
21848;SDS011;11089;49.852;19.700;2024-02-15T17:29:05;16.77;;;7.90;;
21848;SDS011;11089;49.852;19.700;2024-02-15T17:32:08;12.43;;;6.93;;
21848;SDS011;11089;49.852;19.700;2024-02-15T17:35:09;19.30;;;8.43;;
21848;SDS011;11089;49.852;19.700;2024-02-15T17:38:13;18.40;;;8.70;;
21848;SDS011;11089;49.852;19.700;2024-02-15T17:41:13;22.10;;;10.13;;
21848;SDS011;11089;49.852;19.700;2024-02-15T17:44:14;24.13;;;10.52;;
21848;SDS011;11089;49.852;19.700;2024-02-15T17:47:15;22.65;;;11.25;;
21848;SDS011;11089;49.852;19.700;2024-02-15T17:50:16;23.20;;;10.43;;
21848;SDS011;11089;49.852;19.700;2024-02-15T17:53:20;20.05;;;10.18;;
21848;SDS011;11089;49.852;19.700;2024-02-15T17:56:23;25.42;;;9.82;;
21848;SDS011;11089;49.852;19.700;2024-02-15T17:59:25;25.77;;;10.23;;
21848;SDS011;11089;49.852;19.700;2024-02-15T18:02:26;19.27;;;8.65;;
21848;SDS011;11089;49.852;19.700;2024-02-15T18:05:27;18.27;;;8.90;;
21848;SDS011;11089;49.852;19.700;2024-02-15T18:08:28;18.15;;;8.20;;
21848;SDS011;11089;49.852;19.700;2024-02-15T18:11:29;20.90;;;9.60;;
21848;SDS011;11089;49.852;19.700;2024-02-15T18:14:30;26.05;;;11.73;;